Terminal Aerodrome Forecast
Issued by NWS Chicago, IL

Home | Current Version | Previous Version | Graphics & Text | Print | Product List | Glossary On
Versions: 1 2 3 4 5 6 7 8 9 10 11 12 13 14 15 16 17 18 19 20 21 22 23 24 25 26 27 28 29 30
000
FTUS43 KLOT 270302 AAA
TAFRFD
TAF AMD
KRFD 270302Z 2703/2724 07014KT P6SM OVC014
     FM271300 09017G24KT P6SM SCT020 OVC035
     FM272100 08018G26KT 5SM -SHRA BKN020=

USA.gov is the U.S. government's official web portal to all federal, state and local government web resources and services.